Time;durP1;ratioP1;P1;durP2;ratioP2;P2;SDS_P1;SDS_P2;PMS_P1;PMS_P2;Temp;Humidity;BMP_temperature;BMP_pressure;BME280_temperature;BME280_humidity;BME280_pressure;Samples;Min_cycle;Max_cycle;Signal;HPM_P1;HPM_P2
2022/03/08 00:00:15;;;;;;;8.13;5.07;;;;;;;;;;5133403;27;20064;-72
2022/03/08 00:02:42;;;;;;;8.98;5.55;;;;;;;;;;5133268;27;20059;-72
2022/03/08 00:05:08;;;;;;;8.93;5.85;;;;;;;;;;5114932;27;20066;-72
2022/03/08 00:07:34;;;;;;;7.43;5.22;;;;;;;;;;5114767;27;20088;-72
2022/03/08 00:10:00;;;;;;;9.20;4.53;;;;;;;;;;5132817;27;20046;-72
2022/03/08 00:12:26;;;;;;;7.40;5.38;;;;;;;;;;5115081;27;20062;-71
2022/03/08 00:14:52;;;;;;;8.15;5.28;;;;;;;;;;5133115;27;20054;-72
2022/03/08 00:17:18;;;;;;;7.78;5.43;;;;;;;;;;5133102;27;20066;-71
2022/03/08 00:19:44;;;;;;;7.25;5.28;;;;;;;;;;5132820;27;20364;-72
2022/03/08 00:22:10;;;;;;;6.95;5.07;;;;;;;;;;5132719;27;20043;-72
2022/03/08 00:24:36;;;;;;;9.45;5.38;;;;;;;;;;5133203;27;20062;-71
2022/03/08 00:27:02;;;;;;;7.20;5.13;;;;;;;;;;5132997;27;20051;-72
2022/03/08 00:29:28;;;;;;;6.10;4.53;;;;;;;;;;5114314;28;20178;-71
2022/03/08 00:31:54;;;;;;;9.80;5.03;;;;;;;;;;5133074;28;20138;-72
2022/03/08 00:34:20;;;;;;;8.15;5.80;;;;;;;;;;5132903;28;20115;-71
2022/03/08 00:36:46;;;;;;;7.10;5.00;;;;;;;;;;5132746;28;20483;-72
2022/03/08 00:39:12;;;;;;;8.07;5.00;;;;;;;;;;5114550;28;20051;-72
2022/03/08 00:41:38;;;;;;;7.93;5.38;;;;;;;;;;5114629;28;20058;-72
2022/03/08 00:44:07;;;;;;;7.97;5.07;;;1.30;99.90;;;;;;5132788;28;20083;-71
2022/03/08 00:46:33;;;;;;;9.95;5.03;;;1.00;99.90;;;;;;5132805;28;20047;-72
2022/03/08 00:48:59;;;;;;;7.57;4.90;;;;;;;;;;5114261;28;20053;-72
2022/03/08 00:51:26;;;;;;;10.55;4.93;;;;;;;;;;5133816;27;20325;-71
2022/03/08 00:53:52;;;;;;;8.13;5.30;;;;;;;;;;5136731;27;20103;-72
2022/03/08 00:56:18;;;;;;;9.32;5.70;;;;;;;;;;5136791;27;20553;-72
2022/03/08 00:58:44;;;;;;;7.60;5.65;;;;;;;;;;5136645;27;20509;-72
2022/03/08 01:01:10;;;;;;;7.57;5.70;;;;;;;;;;5136811;27;20043;-72
2022/03/08 01:03:36;;;;;;;8.52;5.25;;;;;;;;;;5136654;27;20078;-72
2022/03/08 01:06:02;;;;;;;13.60;6.55;;;;;;;;;;5136456;27;20166;-71
2022/03/08 01:08:28;;;;;;;8.88;5.75;;;;;;;;;;5118558;27;20047;-72
2022/03/08 01:10:54;;;;;;;7.30;5.80;;;0.60;99.90;;;;;;5136467;27;20054;-72
2022/03/08 01:13:20;;;;;;;11.00;5.85;;;;;;;;;;5136493;27;20367;-72
2022/03/08 01:15:46;;;;;;;8.40;5.85;;;0.60;99.90;;;;;;5136544;27;20058;-72
2022/03/08 01:18:12;;;;;;;8.75;5.88;;;;;;;;;;5136383;27;20063;-72
2022/03/08 01:20:38;;;;;;;11.43;6.03;;;;;;;;;;5117996;27;20447;-72
2022/03/08 01:23:04;;;;;;;8.23;6.40;;;;;;;;;;5117982;27;20091;-72
2022/03/08 01:25:30;;;;;;;8.15;5.95;;;;;;;;;;5118068;27;20096;-72
2022/03/08 01:27:56;;;;;;;8.27;6.35;;;;;;;;;;5117816;27;20047;-72
2022/03/08 01:30:26;;;;;;;8.48;6.07;;;;;;;;;;5136080;27;20108;-72
2022/03/08 01:32:52;;;;;;;9.05;6.50;;;;;;;;;;5136039;27;20051;-71
2022/03/08 01:35:18;;;;;;;11.07;6.55;;;;;;;;;;5117672;27;20043;-71
2022/03/08 01:37:44;;;;;;;12.73;6.68;;;;;;;;;;5136036;27;20406;-71
2022/03/08 01:40:14;;;;;;;8.05;6.60;;;;;;;;;;5136152;27;20039;-71
2022/03/08 01:42:41;;;;;;;10.27;6.60;;;;;;;;;;5135794;27;20055;-71
2022/03/08 01:45:07;;;;;;;10.10;7.43;;;0.30;99.90;;;;;;5135793;27;20047;-71
2022/03/08 01:47:33;;;;;;;9.68;7.13;;;;;;;;;;5100658;27;20058;-71
2022/03/08 01:50:00;;;;;;;11.77;7.00;;;;;;;;;;5100010;27;20534;-72
2022/03/08 01:52:28;;;;;;;10.35;7.50;;;;;;;;;;5117477;27;20050;-72
2022/03/08 01:54:54;;;;;;;8.93;6.93;;;;;;;;;;5135683;27;20176;-71
2022/03/08 01:57:23;;;;;;;10.38;7.25;;;;;;;;;;5100328;27;20398;-71
2022/03/08 01:59:49;;;;;;;10.50;7.22;;;;;;;;;;5117279;27;20517;-71
2022/03/08 02:02:16;;;;;;;15.50;7.97;;;;;;;;;;5135040;27;20051;-71
2022/03/08 02:04:42;;;;;;;11.23;7.70;;;;;;;;;;5135362;27;20051;-72
2022/03/08 02:07:08;;;;;;;11.32;7.72;;;;;;;;;;5135503;27;20054;-72
2022/03/08 02:09:34;;;;;;;12.43;7.75;;;;;;;;;;5135514;27;20046;-71
2022/03/08 02:12:00;;;;;;;11.23;7.75;;;;;;;;;;5135330;27;20054;-72
2022/03/08 02:14:27;;;;;;;11.18;8.45;;;;;;;;;;5135295;27;20122;-72
2022/03/08 02:16:53;;;;;;;14.32;9.23;;;;;;;;;;5135058;27;20051;-72
2022/03/08 02:19:19;;;;;;;11.90;8.60;;;;;;;;;;5135379;27;20364;-71
2022/03/08 02:21:45;;;;;;;15.95;9.35;;;;;;;;;;5135108;27;20046;-72
2022/03/08 02:24:11;;;;;;;15.13;8.90;;;;;;;;;;5135099;27;20108;-72
2022/03/08 02:26:37;;;;;;;11.80;8.45;;;;;;;;;;5135143;27;20051;-72
2022/03/08 02:29:06;;;;;;;15.15;9.57;;;;;;;;;;5134888;27;20561;-72
2022/03/08 02:31:32;;;;;;;15.40;9.98;;;;;;;;;;5134594;27;20814;-72
2022/03/08 02:33:58;;;;;;;;;;;;;;;;;;5117137;27;20173;-72
2022/03/08 02:36:24;;;;;;;17.38;8.73;;;;;;;;;;5134992;27;19992;-72
2022/03/08 02:38:50;;;;;;;13.82;8.65;;;;;;;;;;5116558;27;20051;-72
2022/03/08 02:41:17;;;;;;;11.73;9.00;;;;;;;;;;5134768;27;20148;-71
2022/03/08 02:43:43;;;;;;;14.40;10.13;;;;;;;;;;5134737;27;20051;-72
2022/03/08 02:46:09;;;;;;;15.23;9.38;;;;;;;;;;5134525;27;20045;-72
2022/03/08 02:48:35;;;;;;;17.63;9.73;;;;;;;;;;5134799;27;20082;-72
2022/03/08 02:51:03;;;;;;;13.25;10.20;;;;;;;;;;5134471;27;20043;-72
2022/03/08 02:53:29;;;;;;;14.32;10.38;;;;;;;;;;5134548;27;20047;-72
2022/03/08 02:55:55;;;;;;;13.90;10.65;;;;;;;;;;5134447;27;20130;-72
2022/03/08 02:58:21;;;;;;;13.73;10.10;;;;;;;;;;5134427;27;20121;-72
2022/03/08 03:00:47;;;;;;;18.38;10.65;;;;;;;;;;5115800;27;20039;-72
2022/03/08 03:03:13;;;;;;;14.48;10.63;;;;;;;;;;5116335;27;20054;-72
2022/03/08 03:05:39;;;;;;;15.15;10.68;;;;;;;;;;5134437;27;20039;-72
2022/03/08 03:08:06;;;;;;;15.45;11.10;;;;;;;;;;5134273;27;20040;-72
2022/03/08 03:10:32;;;;;;;17.30;12.50;;;;;;;;;;5115755;27;20035;-72
2022/03/08 03:12:58;;;;;;;16.40;12.00;;;;;;;;;;5115688;27;20047;-72
2022/03/08 03:15:25;;;;;;;;;;;0.20;99.90;;;;;;5115391;27;20486;-72
2022/03/08 03:17:52;;;;;;;16.83;11.43;;;;;;;;;;5115483;27;19920;-72
2022/03/08 03:20:19;;;;;;;17.58;12.50;;;;;;;;;;5134095;27;20068;-72
2022/03/08 03:22:46;;;;;;;22.55;12.07;;;;;;;;;;5133873;27;20084;-72
2022/03/08 03:25:12;;;;;;;;;;;;;;;;;;5134291;27;20129;-72
2022/03/08 03:27:38;;;;;;;17.75;12.27;;;;;;;;;;5133816;27;19970;-72
2022/03/08 03:30:05;;;;;;;18.00;12.43;;;;;;;;;;5115029;27;20051;-72
2022/03/08 03:32:31;;;;;;;15.98;12.23;;;;;;;;;;5115753;27;20043;-72
2022/03/08 03:34:57;;;;;;;18.02;12.63;;;;;;;;;;5133690;27;20070;-72
2022/03/08 03:37:23;;;;;;;17.42;13.02;;;;;;;;;;5133556;27;20513;-72
2022/03/08 03:39:49;;;;;;;;;;;;;;;;;;5133922;27;20042;-72
2022/03/08 03:42:16;;;;;;;20.45;13.70;;;;;;;;;;5115227;27;20007;-72
2022/03/08 03:44:44;;;;;;;20.70;14.32;;;;;;;;;;5133276;27;20494;-72
2022/03/08 03:47:10;;;;;;;18.92;13.13;;;;;;;;;;5133589;27;20100;-72
2022/03/08 03:49:36;;;;;;;21.75;13.85;;;;;;;;;;5133450;27;20534;-72
2022/03/08 03:52:03;;;;;;;19.38;13.70;;;;;;;;;;5115012;27;20091;-72
2022/03/08 03:54:29;;;;;;;21.00;14.15;;;;;;;;;;5133338;27;20091;-72
2022/03/08 03:56:55;;;;;;;21.20;14.13;;;;;;;;;;5114820;27;20047;-72
2022/03/08 03:59:21;;;;;;;22.13;13.98;;;;;;;;;;5133165;27;20402;-72
2022/03/08 04:01:48;;;;;;;21.27;14.30;;;;;;;;;;5114663;27;20051;-72
2022/03/08 04:04:14;;;;;;;21.90;14.20;;;;;;;;;;5133010;27;20510;-72
2022/03/08 04:06:40;;;;;;;23.45;15.05;;;;;;;;;;5115022;27;20490;-72
2022/03/08 04:09:06;;;;;;;21.55;15.02;;;;;;;;;;5114735;27;20051;-72
2022/03/08 04:11:32;;;;;;;23.73;15.25;;;;;;;;;;5133053;27;20450;-72
2022/03/08 04:13:58;;;;;;;20.85;15.35;;;;;;;;;;5114711;27;20402;-72
2022/03/08 04:16:24;;;;;;;;;;;;;;;;;;5115551;27;20039;-72
2022/03/08 04:18:50;;;;;;;20.50;14.25;;;;;;;;;;5132942;27;19926;-72
2022/03/08 04:21:16;;;;;;;22.65;15.20;;;;;;;;;;5133005;27;20087;-72
2022/03/08 04:23:42;;;;;;;25.95;15.43;;;;;;;;;;5132826;27;20047;-72
2022/03/08 04:26:09;;;;;;;24.08;15.50;;;;;;;;;;5132575;27;20574;-72
2022/03/08 04:28:35;;;;;;;22.50;15.50;;;;;;;;;;5132828;27;20039;-71
2022/03/08 04:31:01;;;;;;;22.48;15.88;;;;;;;;;;5114148;28;20138;-71
2022/03/08 04:33:27;;;;;;;22.92;15.82;;;;;;;;;;5132898;28;20510;-72
2022/03/08 04:35:53;;;;;;;25.10;15.95;;;;;;;;;;5132882;28;20053;-71
2022/03/08 04:38:19;;;;;;;22.30;16.15;;;;;;;;;;5132824;28;20082;-71
2022/03/08 04:40:45;;;;;;;24.38;15.73;;;;;;;;;;5114347;28;20092;-72
2022/03/08 04:43:11;;;;;;;24.70;16.83;;;;;;;;;;5114626;28;20058;-72
2022/03/08 04:45:37;;;;;;;25.77;16.65;;;;;;;;;;5114580;28;20108;-71
2022/03/08 04:48:03;;;;;;;25.33;16.58;;;;;;;;;;5132823;28;20039;-71
2022/03/08 04:50:29;;;;;;;25.10;16.58;;;;;;;;;;5132661;28;20047;-71
2022/03/08 04:52:55;;;;;;;24.05;15.82;;;;;;;;;;5132663;28;20043;-72
2022/03/08 04:55:21;;;;;;;23.83;16.08;;;;;;;;;;5132610;28;20059;-71
2022/03/08 04:57:48;;;;;;;26.48;16.23;;;;;;;;;;5132500;28;20478;-72
2022/03/08 05:00:14;;;;;;;;;;;;;;;;;;5114751;28;20559;-71
2022/03/08 05:02:43;;;;;;;25.50;16.10;;;;;;;;;;5132438;28;19923;-71
2022/03/08 05:05:10;;;;;;;23.65;16.33;;;;;;;;;;5132470;28;20055;-72
2022/03/08 05:07:37;;;;;;;27.63;18.10;;;;;;;;;;5132529;28;20043;-72
2022/03/08 05:10:04;;;;;;;25.50;17.50;;;;;;;;;;5132228;28;20047;-72
2022/03/08 05:12:30;;;;;;;26.13;17.85;;;;;;;;;;5132676;28;20047;-72
2022/03/08 05:14:56;;;;;;;26.73;18.10;;;;;;;;;;5132496;28;20051;-72
2022/03/08 05:17:22;;;;;;;26.27;18.00;;;;;;;;;;5132345;28;20506;-71
2022/03/08 05:19:49;;;;;;;30.08;18.55;;;;;;;;;;5114106;28;20047;-72
2022/03/08 05:22:15;;;;;;;27.88;17.33;;;;;;;;;;5132361;28;20047;-71
2022/03/08 05:24:41;;;;;;;28.48;16.77;;;;;;;;;;5132203;28;20139;-72
2022/03/08 05:27:07;;;;;;;29.80;18.08;;;;;;;;;;5132494;28;20083;-71
2022/03/08 05:29:33;;;;;;;;;;;;;;;;;;5114392;28;20084;-71
2022/03/08 05:32:00;;;;;;;26.17;17.30;;;;;;;;;;5132313;28;20370;-71
2022/03/08 05:34:26;;;;;;;;;;;;;;;;;;5114435;28;20398;-72
2022/03/08 05:36:52;;;;;;;32.97;19.02;;;;;;;;;;5132363;27;19920;-72
2022/03/08 05:39:18;;;;;;;27.05;18.38;;;;;;;;;;5135850;27;20452;-71
2022/03/08 05:41:44;;;;;;;29.50;18.42;;;;;;;;;;5135832;27;20104;-72
2022/03/08 05:44:10;;;;;;;26.42;18.38;;;;;;;;;;5135970;27;20051;-72
2022/03/08 05:46:36;;;;;;;28.90;18.73;;;;;;;;;;5117597;27;20086;-72
2022/03/08 05:49:03;;;;;;;29.58;18.98;;;;;;;;;;5135811;27;20049;-72
2022/03/08 05:51:29;;;;;;;31.85;19.27;;;;;;;;;;5117269;27;20096;-71
2022/03/08 05:53:55;;;;;;;32.53;19.63;;;;;;;;;;5135588;27;20102;-71
2022/03/08 05:56:21;;;;;;;29.20;18.58;;;;;;;;;;5117615;27;20066;-71
2022/03/08 05:58:47;;;;;;;30.33;19.50;;;;;;;;;;5135799;27;20083;-71
2022/03/08 06:01:13;;;;;;;27.70;19.08;;;;;;;;;;5135577;27;20082;-71
2022/03/08 06:03:39;;;;;;;31.65;20.08;;;;;;;;;;5135515;27;20051;-71
2022/03/08 06:06:05;;;;;;;30.05;18.92;;;;;;;;;;5117215;27;20051;-71
2022/03/08 06:08:32;;;;;;;34.60;19.90;;;;;;;;;;5135299;27;20486;-71
2022/03/08 06:10:58;;;;;;;28.77;18.92;;;;;;;;;;5116865;27;20131;-71
2022/03/08 06:13:24;;;;;;;37.17;19.98;;;;;;;;;;5117084;27;20096;-71
2022/03/08 06:15:50;;;;;;;29.80;19.55;;;;;;;;;;5135480;27;20054;-71
2022/03/08 06:18:16;;;;;;;30.23;18.20;;;;;;;;;;5135218;27;20483;-71
2022/03/08 06:20:42;;;;;;;28.45;20.00;;;;;;;;;;5135268;27;20050;-71
2022/03/08 06:23:08;;;;;;;27.70;18.90;;;;;;;;;;5134960;27;20509;-71
2022/03/08 06:25:34;;;;;;;31.40;19.52;;;;;;;;;;5135020;27;20435;-71
2022/03/08 06:28:00;;;;;;;31.38;20.02;;;;;;;;;;5135100;27;20096;-71
2022/03/08 06:30:26;;;;;;;29.65;18.75;;;;;;;;;;5134744;27;20101;-71
2022/03/08 06:32:52;;;;;;;32.10;20.65;;;;;;;;;;5134881;27;20421;-71
2022/03/08 06:35:19;;;;;;;32.78;18.55;;;;;;;;;;5134776;27;20054;-71
2022/03/08 06:37:45;;;;;;;29.83;19.88;;;;;;;;;;5134766;27;20055;-71
2022/03/08 06:40:12;;;;;;;30.70;19.52;;;;;;;;;;5116482;27;20050;-71
2022/03/08 06:42:38;;;;;;;31.67;20.85;;;;;;;;;;5134870;27;20039;-71
2022/03/08 06:45:04;;;;;;;;;;;;;;;;;;5135150;27;20084;-71
2022/03/08 06:47:30;;;;;;;31.50;19.98;;;;;;;;;;5134701;27;20038;-71
2022/03/08 06:49:56;;;;;;;35.55;19.98;;;;;;;;;;5134509;27;20043;-71
2022/03/08 06:52:22;;;;;;;29.48;19.25;;;;;;;;;;5134430;27;20074;-71
2022/03/08 06:54:48;;;;;;;29.00;19.48;;;;;;;;;;5116255;27;20054;-71
2022/03/08 06:57:14;;;;;;;29.02;19.90;;;;;;;;;;5116123;27;20053;-71
2022/03/08 06:59:40;;;;;;;29.88;19.55;;;;;;;;;;5134448;27;20495;-71
2022/03/08 07:02:06;;;;;;;32.03;18.85;;;;;;;;;;5134160;27;20047;-71
2022/03/08 07:04:32;;;;;;;33.63;20.17;;;;;;;;;;5134238;27;20517;-71
2022/03/08 07:06:59;;;;;;;31.10;19.08;;;;;;;;;;5134070;27;20050;-71
2022/03/08 07:09:25;;;;;;;31.13;19.35;;;;;;;;;;5134131;27;20081;-72
2022/03/08 07:11:52;;;;;;;33.00;20.30;;;;;;;;;;5102128;27;20039;-71
2022/03/08 07:14:18;;;;;;;30.65;18.45;;;;;;;;;;5114140;27;20429;-71
2022/03/08 07:16:45;;;;;;;33.33;19.50;;;;;;;;;;5112619;28;20048;-71
2022/03/08 07:19:12;;;;;;;32.35;20.13;;;;;;;;;;5125208;27;20104;-72
2022/03/08 07:21:38;;;;;;;27.92;18.20;;;;;;;;;;5092630;27;20055;-71
2022/03/08 07:24:04;;;;;;;30.92;18.60;;;;;;;;;;5114468;27;20050;-71
2022/03/08 07:26:30;;;;;;;27.10;18.15;;;;;;;;;;5115272;27;20039;-72
2022/03/08 07:28:57;;;;;;;31.60;19.17;;;;;;;;;;5132318;27;20047;-71
2022/03/08 07:31:23;;;;;;;34.22;18.85;;;;;;;;;;5111763;27;20497;-72
2022/03/08 07:33:49;;;;;;;27.52;18.30;;;;;;;;;;5111358;27;20415;-72
2022/03/08 07:36:15;;;;;;;29.15;17.92;;;;;;;;;;5110117;27;20050;-71
2022/03/08 07:38:41;;;;;;;27.70;17.75;;;;;;;;;;5132958;27;20055;-71
2022/03/08 07:41:07;;;;;;;29.52;18.48;;;;;;;;;;5132054;27;20039;-71
2022/03/08 07:43:36;;;;;;;26.52;17.90;;;;;;;;;;5108754;27;20097;-72
2022/03/08 07:46:06;;;;;;;29.70;17.50;;;;;;;;;;5129708;27;20043;-70
2022/03/08 07:48:32;;;;;;;25.08;16.40;;;;;;;;;;5111743;28;20066;-70
2022/03/08 07:50:59;;;;;;;27.85;17.17;;;;;;;;;;5116070;27;20039;-71
2022/03/08 07:53:25;;;;;;;28.40;17.20;;;;;;;;;;5107144;27;20050;-70
2022/03/08 07:55:51;;;;;;;27.98;18.02;;;;;;;;;;5119794;27;20042;-71
2022/03/08 07:58:17;;;;;;;27.17;17.50;;;;;;;;;;5115984;27;20043;-71
2022/03/08 08:00:43;;;;;;;29.17;17.08;;;;;;;;;;5124072;27;20117;-71
2022/03/08 08:03:09;;;;;;;29.15;16.77;;;;;;;;;;5109752;28;20043;-70
2022/03/08 08:05:36;;;;;;;24.20;15.90;;;;;;;;;;5111975;28;20448;-70
2022/03/08 08:08:06;;;;;;;23.38;16.33;;;;;;;;;;5111563;27;20100;-70
2022/03/08 08:10:32;;;;;;;25.55;16.40;;;;;;;;;;5112425;27;20394;-70
2022/03/08 08:12:58;;;;;;;32.63;15.80;;;;;;;;;;5125591;27;20047;-69
2022/03/08 08:15:24;;;;;;;27.00;16.00;;;;;;;;;;5110144;27;20048;-68
2022/03/08 08:17:50;;;;;;;26.08;15.32;;;;;;;;;;5110883;28;20066;-70
2022/03/08 08:20:17;;;;;;;26.85;15.57;;;;;;;;;;5112256;28;20090;-70
2022/03/08 08:22:43;;;;;;;24.10;15.80;;;;;;;;;;5110813;28;20568;-72
2022/03/08 08:25:10;;;;;;;28.27;14.93;;;;;;;;;;5112170;28;20070;-70
2022/03/08 08:27:37;;;;;;;25.65;15.32;;;;;;;;;;5112243;28;20051;-71
2022/03/08 08:30:04;;;;;;;23.50;14.80;;;;;;;;;;5111825;28;20051;-71
2022/03/08 08:32:30;;;;;;;27.38;16.05;;;2.70;99.90;;;;;;5112160;28;20083;-72
2022/03/08 08:34:56;;;;;;;27.40;15.73;;;;;;;;;;5111897;28;20160;-71
2022/03/08 08:37:22;;;;;;;25.23;15.40;;;;;;;;;;5112141;28;20273;-68
2022/03/08 08:39:48;;;;;;;23.83;14.05;;;;;;;;;;5111151;28;20155;-70
2022/03/08 08:42:14;;;;;;;24.23;14.35;;;;;;;;;;5111973;28;20142;-71
2022/03/08 08:44:40;;;;;;;22.80;14.98;;;;;;;;;;5111910;28;20043;-69
2022/03/08 08:47:06;;;;;;;22.02;14.98;;;;;;;;;;5110424;28;20071;-70
2022/03/08 08:49:32;;;;;;;20.33;13.20;;;3.60;99.90;;;;;;5112098;28;20047;-70
2022/03/08 08:51:58;;;;;;;22.70;14.05;;;;;;;;;;5110938;28;20051;-70
2022/03/08 08:54:24;;;;;;;19.45;13.45;;;;;;;;;;5111822;28;20080;-72
2022/03/08 08:56:50;;;;;;;21.23;14.13;;;;;;;;;;5112066;28;20043;-72
2022/03/08 08:59:16;;;;;;;20.48;13.43;;;3.70;99.90;;;;;;5111804;28;20093;-71
2022/03/08 09:01:41;;;;;;;22.20;14.32;;;3.80;99.90;;;;;;5112264;28;20073;-71
2022/03/08 09:04:07;;;;;;;21.00;14.07;;;4.30;99.90;;;;;;5111893;28;20051;-71
2022/03/08 09:06:33;;;;;;;20.58;12.75;;;4.60;99.90;;;;;;5111850;28;20285;-69
2022/03/08 09:08:59;;;;;;;19.05;13.20;;;4.50;99.90;;;;;;5110434;28;20495;-69
2022/03/08 09:11:25;;;;;;;24.92;14.10;;;4.40;99.90;;;;;;5111791;28;20141;-71
2022/03/08 09:13:51;;;;;;;21.02;13.73;;;4.60;99.90;;;;;;5115002;28;20122;-71
2022/03/08 09:16:17;;;;;;;18.88;13.60;;;4.80;99.90;;;;;;5114235;28;20059;-72
2022/03/08 09:18:44;;;;;;;19.98;12.25;;;;;;;;;;5116062;28;20055;-70
2022/03/08 09:21:12;;;;;;;21.40;12.82;;;4.90;99.90;;;;;;5115686;28;20054;-71
2022/03/08 09:23:38;;;;;;;22.23;13.18;;;;;;;;;;5115636;28;20105;-71
2022/03/08 09:26:05;;;;;;;21.80;11.90;;;5.60;99.90;;;;;;5115700;28;20048;-71
2022/03/08 09:28:31;;;;;;;17.13;10.63;;;5.50;99.90;;;;;;5114385;28;20090;-72
2022/03/08 09:30:59;;;;;;;18.75;11.88;;;;;;;;;;5115270;28;20055;-69
2022/03/08 09:33:26;;;;;;;16.15;11.13;;;5.80;99.90;;;;;;5115550;28;20379;-69
2022/03/08 09:35:51;;;;;;;16.15;10.88;;;5.50;99.90;;;;;;5115536;28;20126;-70
2022/03/08 09:38:17;;;;;;;15.20;11.30;;;6.10;99.90;;;;;;5115161;28;20135;-69
2022/03/08 09:40:43;;;;;;;14.63;10.13;;;6.20;99.90;;;;;;5115379;28;20101;-71
2022/03/08 09:43:09;;;;;;;13.07;9.65;;;;;;;;;;5114030;28;20131;-70
2022/03/08 09:45:35;;;;;;;16.75;9.98;;;6.10;99.90;;;;;;5115003;28;20484;-71
2022/03/08 09:48:01;;;;;;;13.43;9.35;;;6.80;99.90;;;;;;5115072;28;20050;-70
2022/03/08 09:50:29;;;;;;;;;;;;;;;;;;5115559;28;20047;-70
2022/03/08 09:52:57;;;;;;;15.50;8.77;;;;;;;;;;5114917;28;20364;-71
2022/03/08 09:55:25;;;;;;;11.57;8.68;;;6.80;99.90;;;;;;5113858;28;20100;-71
2022/03/08 09:57:52;;;;;;;14.63;8.98;;;7.10;99.90;;;;;;5114746;27;20051;-70
2022/03/08 10:00:19;;;;;;;14.70;8.35;;;7.30;99.90;;;;;;5114875;28;20456;-71
2022/03/08 10:02:45;;;;;;;;;;;7.10;99.90;;;;;;5115093;28;20134;-71
2022/03/08 10:05:11;;;;;;;14.57;8.32;;;7.30;99.90;;;;;;5114505;27;19927;-70
2022/03/08 10:07:37;;;;;;;11.75;8.45;;;7.20;99.90;;;;;;5115059;28;20039;-70
2022/03/08 10:10:04;;;;;;;11.32;8.05;;;7.40;99.90;;;;;;5114825;28;20070;-70
2022/03/08 10:12:29;;;;;;;11.77;8.88;;;7.70;99.90;;;;;;5114633;27;20051;-69
2022/03/08 10:14:55;;;;;;;14.00;8.50;;;7.70;99.90;;;;;;5101872;28;20039;-69
2022/03/08 10:17:39;;;;;;;13.30;8.35;;;7.70;99.90;;;;;;5122049;27;20104;-70
2022/03/08 10:20:08;;;;;;;10.85;8.48;;;7.70;99.90;;;;;;5124451;27;20190;-71
2022/03/08 10:22:40;;;;;;;12.45;8.02;;;7.90;99.90;;;;;;5093199;27;20051;-74
2022/03/08 10:25:22;;;;;;;11.10;7.93;;;7.90;99.90;;;;;;5114881;27;20058;-70
2022/03/08 10:27:56;;;;;;;14.20;8.45;;;7.60;99.90;;;;;;5125985;27;20760;-71
2022/03/08 10:30:48;;;;;;;12.48;8.07;;;7.90;99.90;;;;;;5115263;27;20056;-70
2022/03/08 10:33:19;;;;;;;16.92;8.70;;;8.20;99.90;;;;;;5122032;27;20531;-69
2022/03/08 10:35:47;;;;;;;12.07;8.57;;;7.90;99.90;;;;;;5132892;27;20043;-69
2022/03/08 10:38:13;;;;;;;12.35;8.45;;;8.10;99.90;;;;;;5133434;27;20047;-70
2022/03/08 10:40:40;;;;;;;19.40;8.85;;;8.10;99.90;;;;;;5134768;27;20054;-68
2022/03/08 10:43:13;;;;;;;14.73;8.90;;;8.30;99.90;;;;;;5116313;27;20039;-69
2022/03/08 10:45:45;;;;;;;11.23;7.88;;;8.40;99.90;;;;;;5134854;27;20059;-69
2022/03/08 10:48:14;;;;;;;9.48;7.50;;;8.40;99.90;;;;;;5134474;27;20047;-70
2022/03/08 10:50:41;;;;;;;9.70;7.45;;;8.30;99.90;;;;;;5134686;27;20062;-69
2022/03/08 10:53:08;;;;;;;11.95;7.03;;;8.50;99.90;;;;;;5134588;27;20153;-69
2022/03/08 10:55:38;;;;;;;12.52;7.38;;;8.50;99.90;;;;;;5134617;27;20050;-69
2022/03/08 10:58:10;;;;;;;11.30;6.97;;;8.70;99.90;;;;;;5134436;27;20143;-69
2022/03/08 11:00:40;;;;;;;11.20;6.93;;;8.60;99.90;;;;;;5134180;27;20455;-70
2022/03/08 11:03:14;;;;;;;10.07;6.78;;;8.60;99.90;;;;;;5134625;27;20043;-70
2022/03/08 11:05:47;;;;;;;8.05;6.43;;;8.70;99.90;;;;;;5134402;27;20043;-69
2022/03/08 11:08:13;;;;;;;9.95;7.00;;;8.70;99.90;;;;;;5134392;27;20439;-69
2022/03/08 11:10:39;;;;;;;;;;;8.90;99.90;;;;;;5134463;27;20082;-71
2022/03/08 11:13:07;;;;;;;8.30;6.53;;;8.60;99.90;;;;;;5134120;27;19972;-70
2022/03/08 11:15:35;;;;;;;8.50;6.40;;;9.60;99.90;;;;;;5134101;27;20101;-69
2022/03/08 11:18:03;;;;;;;9.00;6.10;;;9.00;99.90;;;;;;5134194;27;20538;-73
2022/03/08 11:20:30;;;;;;;9.25;6.47;;;8.70;99.90;;;;;;5134133;27;20126;-69
2022/03/08 11:22:57;;;;;;;9.77;6.35;;;8.90;99.90;;;;;;5133854;27;20054;-69
2022/03/08 11:25:27;;;;;;;8.38;6.32;;;8.70;99.90;;;;;;5073871;28;20479;-70
2022/03/08 11:27:53;;;;;;;8.73;6.60;;;9.20;99.90;;;;;;5109423;27;20114;-71
2022/03/08 11:30:33;;;;;;;8.55;6.60;;;9.00;99.90;;;;;;5113193;28;20055;-72
2022/03/08 11:33:08;;;;;;;9.00;6.80;;;8.90;99.90;;;;;;5113111;28;20064;-71
2022/03/08 11:35:53;;;;;;;11.73;7.68;;;9.50;99.90;;;;;;5112622;28;20112;-71
2022/03/08 11:38:19;;;;;;;11.50;7.10;;;9.20;99.90;;;;;;5113364;28;20078;-74
2022/03/08 11:40:57;;;;;;;8.85;6.60;;;8.90;99.90;;;;;;5112215;28;20410;-70
2022/03/08 11:43:43;;;;;;;8.82;6.60;;;9.10;99.90;;;;;;5113180;28;20051;-69
2022/03/08 11:46:18;;;;;;;8.95;6.88;;;9.10;99.90;;;;;;5094966;28;20135;-69
2022/03/08 11:48:58;;;;;;;8.95;6.35;;;10.10;99.90;;;;;;5112862;28;20052;-69
2022/03/08 11:51:26;;;;;;;8.48;6.10;;;9.30;99.90;;;;;;5113043;28;20058;-69
2022/03/08 11:54:05;;;;;;;10.73;6.55;;;9.70;99.90;;;;;;5094478;28;20051;-69
2022/03/08 11:56:48;;;;;;;11.25;6.15;;;9.50;99.90;;;;;;5112857;28;20044;-69
2022/03/08 11:59:14;;;;;;;9.95;6.70;;;9.80;99.90;;;;;;5113043;28;20047;-70
2022/03/08 12:01:40;;;;;;;8.65;6.15;;;9.80;99.90;;;;;;5112778;28;20031;-69
2022/03/08 12:04:09;;;;;;;8.88;5.78;;;10.20;99.90;;;;;;5112852;28;20047;-68
2022/03/08 12:06:36;;;;;;;8.60;6.10;;;9.70;99.90;;;;;;5094518;28;20182;-70
2022/03/08 12:09:23;;;;;;;7.90;6.05;;;11.00;99.90;;;;;;5112750;28;20059;-70
2022/03/08 12:12:02;;;;;;;7.88;5.40;;;9.70;99.90;;;;;;5112598;28;20479;-70
2022/03/08 12:14:31;;;;;;;7.93;5.85;;;9.90;99.90;;;;;;5094660;28;20056;-69
2022/03/08 12:17:17;;;;;;;10.70;6.20;;;10.50;99.90;;;;;;5112438;28;20088;-69
2022/03/08 12:19:48;;;;;;;9.02;5.97;;;10.00;99.90;;;;;;5116127;27;20047;-70
2022/03/08 12:22:16;;;;;;;8.18;5.50;;;10.00;99.90;;;;;;5110973;27;20050;-70
2022/03/08 12:24:48;;;;;;;6.95;4.90;;;10.70;99.90;;;;;;5110843;28;20054;-70
2022/03/08 12:27:16;;;;;;;7.43;5.07;;;8.40;99.90;;;;;;5129755;27;20043;-70
2022/03/08 12:30:04;;;;;;;7.13;4.88;;;9.90;99.90;;;;;;5111670;27;20096;-69
2022/03/08 12:32:39;;;;;;;6.45;5.20;;;9.80;99.90;;;;;;5115519;27;20079;-70
2022/03/08 12:35:22;;;;;;;7.45;5.53;;;9.70;99.90;;;;;;5124054;28;20368;-70
2022/03/08 12:37:55;;;;;;;7.20;5.32;;;10.40;99.90;;;;;;5117114;28;20097;-70
2022/03/08 12:40:22;;;;;;;8.85;5.20;;;9.90;99.90;;;;;;5113851;28;20047;-69
2022/03/08 12:42:49;;;;;;;7.63;5.35;;;10.00;99.90;;;;;;5099621;28;20400;-72
2022/03/08 12:45:23;;;;;;;7.10;5.30;;;9.70;99.90;;;;;;5112409;28;20088;-69
2022/03/08 12:47:54;;;;;;;7.25;5.40;;;10.10;99.90;;;;;;5115990;28;20048;-71
2022/03/08 12:50:52;;;;;;;7.30;5.45;;;10.30;99.90;;;;;;5116383;28;20039;-71
2022/03/08 12:53:27;;;;;;;6.13;5.07;;;11.40;99.90;;;;;;5082737;28;20063;-70
2022/03/08 12:56:01;;;;;;;6.80;5.28;;;10.50;99.90;;;;;;5098327;28;20044;-69
2022/03/08 12:58:32;;;;;;;7.47;5.53;;;10.90;99.90;;;;;;5116429;28;20580;-70
2022/03/08 13:01:11;;;;;;;6.68;5.15;;;10.60;99.90;;;;;;5098282;28;20044;-68
2022/03/08 13:03:44;;;;;;;7.88;5.55;;;10.50;99.90;;;;;;5116041;28;20079;-69
2022/03/08 13:06:10;;;;;;;8.32;5.50;;;11.00;99.90;;;;;;5116347;28;20047;-69
2022/03/08 13:08:40;;;;;;;6.47;5.03;;;11.30;99.90;;;;;;5116016;28;20039;-69
2022/03/08 13:11:09;;;;;;;8.15;4.90;;;11.00;99.90;;;;;;5116003;28;20083;-69
2022/03/08 13:13:43;;;;;;;8.00;4.55;;;10.90;99.90;;;;;;5116030;28;20047;-68
2022/03/08 13:16:10;;;;;;;6.97;4.45;;;11.20;99.90;;;;;;5097780;28;20321;-69
2022/03/08 13:18:37;;;;;;;5.68;4.43;;;11.40;99.90;;;;;;5116048;28;20483;-69
2022/03/08 13:21:08;;;;;;;9.13;4.88;;;11.60;99.10;;;;;;5115805;28;20035;-68
2022/03/08 13:23:35;;;;;;;7.22;4.90;;;11.50;99.90;;;;;;5115931;28;20100;-69
2022/03/08 13:26:03;;;;;;;5.95;4.57;;;11.40;99.90;;;;;;5115643;28;20051;-69
2022/03/08 13:28:35;;;;;;;7.72;4.57;;;11.20;99.90;;;;;;5097577;28;20048;-69
2022/03/08 13:31:06;;;;;;;6.57;4.72;;;10.90;94.20;;;;;;5119484;27;20123;-68
2022/03/08 13:33:43;;;;;;;6.07;4.85;;;11.50;96.50;;;;;;5115757;28;20057;-68
2022/03/08 13:36:10;;;;;;;;;;;11.80;95.10;;;;;;5116112;28;20426;-68
2022/03/08 13:38:37;;;;;;;;;;;11.40;95.80;;;;;;5115936;28;19923;-69
2022/03/08 13:41:18;;;;;;;7.50;5.00;;;11.80;95.30;;;;;;5115447;28;19926;-69
2022/03/08 13:43:52;;;;;;;7.53;4.90;;;12.10;96.90;;;;;;5115688;28;20047;-67
2022/03/08 13:46:29;;;;;;;7.38;5.00;;;11.80;95.40;;;;;;5097566;28;20055;-68
2022/03/08 13:49:16;;;;;;;10.68;5.50;;;12.00;95.20;;;;;;5115651;28;20043;-70
2022/03/08 13:51:42;;;;;;;7.35;4.88;;;11.80;94.10;;;;;;5115344;28;20038;-69
2022/03/08 13:54:09;;;;;;;9.43;4.50;;;11.70;93.60;;;;;;5115483;28;20431;-69